Quincy, IL

10:19 AM CST on February 12, 2016 (GMT -0600)
Tri-State Storm Chasers - WL#1 | | Change Station
CLOSE
Current Station
Personal Weather Station
Location: Quincy, IL
Elevation: 659 ft
Nearby Weather Stations

Elev 659 ft 39.93 °N, 91.37 °W | Updated 13 minutes ago

Overcast
Overcast
25.3 °F
Feels Like 22 °F
N
3.1
Wind Variable Wind from NNE

Today
High -- | Low -- °F
--% Chance of Precip.
Yesterday
High -- | Low -- °F
Precip. -- in
Pressure 30.32 in
Visibility 10.0 miles
Clouds Overcast 1200 ft
Windchill 22 °F
Dew Point 21 °F
Humidity 84%
Rainfall 0.00 in
Snow Depth Not available.
7:02 AM 5:37 PM
Waxing Crescent, 21% visible
METAR KUIN 121554Z AUTO 32015KT 10SM OVC012 M05/M08 A3029 RMK AO2 SLP268 T10501078
Pressure 30.32 in
Visibility 10.0 miles
Clouds Overcast 1200 ft
Windchill 22 °F
Dew Point 21 °F
Humidity 84%
Rainfall 0.00 in
Snow Depth Not available.
7:02 AM 5:37 PM
Waxing Crescent, 21% visible
METAR KUIN 121554Z AUTO 32015KT 10SM OVC012 M05/M08 A3029 RMK AO2 SLP268 T10501078

10-Day Weather Forecast

Almanac

Astronomy

Feb. 12, 2016 Rise Set
Actual Time
Civil Twilight
Nautical Twilight
Astronomical Twilight
Moon
Length of Visible Light
Length of Day
Tomorrow will be .
, % of the Moon is Illuminated

Today's Extremes

State Highs State Lows

Community

WunderPhotos

Upload Photos

1,892,345 photos uploaded!

WunderBlog® & News

Nearby

Air Quality

  Air Quality AQ Index Pollutant
Not available.

Snow Depth

Station Depth Elevation

Earthquake Activity

City Distance Mag. Time & Date
Minimum magnitude displayed is 2.5.

Coastal Water Temperatures

Place Temperature

Stations

Nearby Weather Stations

Station Location Temp. Windchill Dew Point Humidity Wind Precip. Elev Updated Type
                   

Watches & Warnings

There are currently no watches in effect.